createdAt,value
2022-10-21T00:00:35.186Z,100869.47
2022-10-21T00:03:23.762Z,100876.94
2022-10-21T00:05:51.990Z,100867.78
2022-10-21T00:08:20.303Z,100871.91
2022-10-21T00:10:52.487Z,100881.16
2022-10-21T00:13:20.845Z,100869.16
2022-10-21T00:16:18.151Z,100866.97
2022-10-21T00:18:47.248Z,100853.25
2022-10-21T00:21:17.797Z,100844.50
2022-10-21T00:23:45.682Z,100841.56
2022-10-21T00:26:14.262Z,100835.66
2022-10-21T00:28:42.475Z,100808.47
2022-10-21T00:31:12.564Z,100825.34
2022-10-21T00:33:40.274Z,100815.69
2022-10-21T00:36:08.319Z,100819.88
2022-10-21T00:38:36.288Z,100821.34
2022-10-21T00:41:03.706Z,100813.13
2022-10-21T00:43:31.064Z,100802.94
2022-10-21T00:46:07.957Z,100806.16
2022-10-21T00:48:35.308Z,100798.47
2022-10-21T00:51:13.130Z,100801.56
2022-10-21T00:53:44.653Z,100787.22
2022-10-21T00:56:20.384Z,100793.53
2022-10-21T00:58:49.008Z,100766.91
2022-10-21T01:01:19.244Z,100754.88
2022-10-21T01:03:50.612Z,100756.28
2022-10-21T01:06:21.855Z,100760.75
2022-10-21T01:08:50.120Z,100753.63
2022-10-21T01:11:19.641Z,100741.56
2022-10-21T01:14:23.086Z,100738.75
2022-10-21T01:16:56.228Z,100740.69
2022-10-21T01:19:26.247Z,100737.84
2022-10-21T01:22:06.712Z,100742.38
2022-10-21T01:24:59.128Z,100732.84
2022-10-21T01:27:45.060Z,100719.56
2022-10-21T01:30:36.086Z,100716.22
2022-10-21T01:33:06.161Z,100720.84
2022-10-21T01:35:57.732Z,100711.56
2022-10-21T01:38:54.899Z,100707.13
2022-10-21T01:41:28.480Z,100700.78
2022-10-21T01:44:21.152Z,100711.56
2022-10-21T01:47:02.340Z,100705.03
2022-10-21T01:49:51.424Z,100704.00
2022-10-21T01:52:19.127Z,100713.06
2022-10-21T01:55:00.843Z,100706.78
2022-10-21T01:57:35.378Z,100694.63
2022-10-21T02:00:04.572Z,100694.78
2022-10-21T02:02:37.426Z,100702.03
2022-10-21T02:05:18.941Z,100699.16
2022-10-21T02:07:47.456Z,100689.00
2022-10-21T02:10:14.717Z,100686.69
2022-10-21T02:12:45.818Z,100686.28
2022-10-21T02:15:15.590Z,100685.13
2022-10-21T02:17:54.413Z,100695.25
2022-10-21T02:20:25.963Z,100690.88
2022-10-21T02:22:53.527Z,100695.50
2022-10-21T02:25:23.954Z,100681.31
2022-10-21T02:27:52.315Z,100678.22
2022-10-21T02:30:19.822Z,100669.38
2022-10-21T02:32:56.196Z,100666.22
2022-10-21T02:35:45.474Z,100661.41
2022-10-21T02:38:30.475Z,100665.34
2022-10-21T02:41:00.356Z,100655.34
2022-10-21T02:43:32.249Z,100647.88
2022-10-21T02:46:02.177Z,100640.84
2022-10-21T02:48:33.755Z,100637.41
2022-10-21T02:51:03.921Z,100645.34
2022-10-21T02:53:31.620Z,100649.72
2022-10-21T02:55:58.769Z,100638.81
2022-10-21T02:58:26.348Z,100644.13
2022-10-21T03:00:53.589Z,100625.09
2022-10-21T03:03:21.253Z,100624.78
2022-10-21T03:05:48.680Z,100617.75
2022-10-21T03:08:16.546Z,100614.59
2022-10-21T03:10:43.953Z,100611.19
2022-10-21T03:13:11.296Z,100602.00
2022-10-21T03:15:38.416Z,100597.72
2022-10-21T03:18:05.744Z,100599.09
2022-10-21T03:20:32.873Z,100590.38
2022-10-21T03:23:00.239Z,100586.06
2022-10-21T03:25:28.934Z,100584.41
2022-10-21T03:27:59.211Z,100584.56
2022-10-21T03:30:26.341Z,100556.84
2022-10-21T03:32:53.709Z,100560.72
2022-10-21T03:35:20.852Z,100575.69
2022-10-21T03:37:48.309Z,100578.78
2022-10-21T03:40:15.721Z,100579.47
2022-10-21T03:42:43.090Z,100579.72
2022-10-21T03:45:11.105Z,100585.44
2022-10-21T03:47:38.553Z,100585.03
2022-10-21T03:50:10.203Z,100573.13
2022-10-21T03:52:40.864Z,100577.38
2022-10-21T03:55:08.304Z,100580.31
2022-10-21T03:57:35.740Z,100571.06
2022-10-21T04:00:04.317Z,100561.75
2022-10-21T04:02:40.754Z,100577.06
2022-10-21T04:05:08.957Z,100574.66
2022-10-21T04:07:36.372Z,100582.47
2022-10-21T04:10:05.127Z,100569.81
2022-10-21T04:12:32.589Z,100571.56
2022-10-21T04:15:00.016Z,100563.22
2022-10-21T04:17:28.141Z,100562.34
2022-10-21T04:19:55.337Z,100554.97
2022-10-21T04:22:22.697Z,100558.91
2022-10-21T04:24:49.892Z,100543.84
2022-10-21T04:27:17.239Z,100537.69
2022-10-21T04:29:44.424Z,100528.97
2022-10-21T04:32:11.927Z,100532.81
2022-10-21T04:34:39.091Z,100546.50
2022-10-21T04:37:06.513Z,100547.47
2022-10-21T04:39:33.686Z,100550.00
2022-10-21T04:42:01.173Z,100536.16
2022-10-21T04:44:28.355Z,100531.19
2022-10-21T04:46:56.346Z,100513.56
2022-10-21T04:49:23.488Z,100519.97
2022-10-21T04:51:50.891Z,100503.94
2022-10-21T04:54:18.116Z,100510.03
2022-10-21T04:56:45.487Z,100492.81
2022-10-21T04:59:13.140Z,100492.13
2022-10-21T05:01:40.589Z,100490.25
2022-10-21T05:04:07.860Z,100490.16
2022-10-21T05:06:35.262Z,100482.75
2022-10-21T05:09:02.484Z,100473.16
2022-10-21T05:11:30.622Z,100469.03
2022-10-21T05:13:57.796Z,100468.88
2022-10-21T05:16:25.213Z,100465.47
2022-10-21T05:18:52.472Z,100482.22
2022-10-21T05:21:19.794Z,100457.59
2022-10-21T05:23:47.099Z,100465.34
2022-10-21T05:26:14.479Z,100464.44
2022-10-21T05:28:41.703Z,100461.47
2022-10-21T05:31:09.076Z,100456.25
2022-10-21T05:33:36.227Z,100458.28
2022-10-21T05:36:07.837Z,100452.13
2022-10-21T05:38:35.428Z,100454.28
2022-10-21T05:41:03.461Z,100442.72
2022-10-21T05:43:31.066Z,100443.16
2022-10-21T05:45:58.839Z,100450.75
2022-10-21T05:48:26.069Z,100437.31
2022-10-21T05:50:54.916Z,100439.97
2022-10-21T05:53:26.496Z,100441.34
2022-10-21T05:56:00.635Z,100441.69
2022-10-21T05:58:29.248Z,100448.53
2022-10-21T06:00:57.470Z,100442.53
2022-10-21T06:03:30.708Z,100449.25
2022-10-21T06:06:00.016Z,100447.44
2022-10-21T06:08:28.577Z,100446.94
2022-10-21T06:11:11.098Z,100432.56
2022-10-21T06:13:38.969Z,100425.06
2022-10-21T06:16:08.015Z,100426.44
2022-10-21T06:18:35.342Z,100421.13
2022-10-21T06:21:02.768Z,100438.44
2022-10-21T06:23:29.937Z,100431.94
2022-10-21T06:26:03.008Z,100426.69
2022-10-21T06:28:33.228Z,100416.47
2022-10-21T06:31:00.823Z,100420.69
2022-10-21T06:33:28.208Z,100426.69
2022-10-21T06:35:56.247Z,100421.63
2022-10-21T06:38:24.188Z,100415.84
2022-10-21T06:40:51.772Z,100414.84
2022-10-21T06:43:19.722Z,100407.50
2022-10-21T06:45:47.148Z,100408.91
2022-10-21T06:48:14.367Z,100410.25
2022-10-21T06:50:41.717Z,100395.78
2022-10-21T06:53:08.896Z,100400.13
2022-10-21T06:55:36.284Z,100384.47
2022-10-21T06:58:03.624Z,100383.16
2022-10-21T07:03:03.096Z,100369.59
2022-10-21T07:05:30.470Z,100372.44
2022-10-21T07:07:57.702Z,100361.34
2022-10-21T07:10:25.212Z,100357.94
2022-10-21T07:12:52.519Z,100357.25
2022-10-21T07:15:19.955Z,100352.03
2022-10-21T07:17:47.098Z,100342.97
2022-10-21T07:20:14.569Z,100334.22
2022-10-21T07:22:41.693Z,100333.19
2022-10-21T07:25:09.445Z,100320.75
2022-10-21T07:27:36.838Z,100323.31
2022-10-21T07:30:04.766Z,100329.69
2022-10-21T07:32:31.903Z,100328.91
2022-10-21T07:35:00.337Z,100320.16
2022-10-21T07:37:27.482Z,100324.81
2022-10-21T07:39:54.879Z,100323.97
2022-10-21T07:42:22.418Z,100325.84
2022-10-21T07:44:50.766Z,100322.34
2022-10-21T07:47:17.919Z,100327.56
2022-10-21T07:49:45.247Z,100335.13
2022-10-21T07:52:12.397Z,100338.19
2022-10-21T07:54:39.827Z,100343.19
2022-10-21T07:57:06.982Z,100338.44
2022-10-21T07:59:34.370Z,100327.34
2022-10-21T08:02:01.544Z,100333.94
2022-10-21T08:04:33.302Z,100331.91
2022-10-21T08:07:00.500Z,100309.47
2022-10-21T08:09:28.086Z,100303.53
2022-10-21T08:11:55.588Z,100298.41
2022-10-21T08:14:22.963Z,100310.25
2022-10-21T08:16:54.668Z,100305.78
2022-10-21T08:19:27.334Z,100302.00
2022-10-21T08:21:54.894Z,100304.44
2022-10-21T08:24:23.559Z,100298.97
2022-10-21T08:26:51.572Z,100299.25
2022-10-21T08:29:18.980Z,100298.06
2022-10-21T08:31:46.486Z,100289.63
2022-10-21T08:34:13.956Z,100292.69
2022-10-21T08:36:41.556Z,100299.06
2022-10-21T08:39:09.388Z,100303.06
2022-10-21T08:41:46.771Z,100308.72
2022-10-21T08:44:22.761Z,100312.25
2022-10-21T08:47:31.059Z,100302.09
2022-10-21T08:50:02.601Z,100297.22
2022-10-21T08:52:41.429Z,100311.63
2022-10-21T08:55:16.885Z,100302.84
2022-10-21T08:57:44.264Z,100298.00
2022-10-21T09:00:16.442Z,100290.28
2022-10-21T09:02:52.960Z,100291.91
2022-10-21T09:05:38.626Z,100282.38
2022-10-21T09:08:25.421Z,100286.38
2022-10-21T09:11:15.653Z,100289.34
2022-10-21T09:14:01.581Z,100260.47
2022-10-21T09:17:13.361Z,100253.03
2022-10-21T09:20:05.213Z,100259.22
2022-10-21T09:22:56.251Z,100270.97
2022-10-21T09:25:39.143Z,100259.16
2022-10-21T09:28:15.310Z,100275.44
2022-10-21T09:30:44.652Z,100276.66
2022-10-21T09:33:21.971Z,100282.59
2022-10-21T09:35:54.529Z,100291.09
2022-10-21T09:38:45.323Z,100280.84
2022-10-21T09:41:24.728Z,100277.06
2022-10-21T09:43:52.389Z,100280.00
2022-10-21T09:46:20.036Z,100270.28
2022-10-21T09:51:40.437Z,100270.69
2022-10-21T09:54:19.809Z,100263.25
2022-10-21T09:56:54.788Z,100272.94
2022-10-21T09:59:23.725Z,100258.69
2022-10-21T10:01:51.697Z,100259.97
2022-10-21T10:04:31.153Z,100268.75
2022-10-21T10:07:01.385Z,100250.44
2022-10-21T10:09:29.949Z,100248.00
2022-10-21T10:12:14.706Z,100244.16
2022-10-21T10:14:45.180Z,100228.41
2022-10-21T10:17:35.657Z,100236.88
2022-10-21T10:20:09.189Z,100229.69
2022-10-21T10:22:41.925Z,100208.44
2022-10-21T10:25:17.028Z,100207.28
2022-10-21T10:28:09.319Z,100201.63
2022-10-21T10:30:43.968Z,100192.53
2022-10-21T10:33:31.311Z,100203.88
2022-10-21T10:36:01.312Z,100196.81
2022-10-21T10:38:36.065Z,100182.84
2022-10-21T10:41:15.744Z,100195.00
2022-10-21T10:43:45.567Z,100188.19
2022-10-21T10:46:32.586Z,100183.94
2022-10-21T10:49:07.275Z,100187.59
2022-10-21T10:51:36.126Z,100200.34
2022-10-21T10:54:06.636Z,100190.88
2022-10-21T10:56:52.580Z,100184.31
2022-10-21T10:59:29.102Z,100184.41
2022-10-21T11:02:02.607Z,100188.41
2022-10-21T11:04:46.617Z,100169.50
2022-10-21T11:07:24.123Z,100173.25
2022-10-21T11:09:56.919Z,100176.94
2022-10-21T11:12:26.661Z,100177.13
2022-10-21T11:14:57.246Z,100187.00
2022-10-21T11:17:43.305Z,100188.69
2022-10-21T11:20:27.181Z,100190.28
2022-10-21T11:23:09.753Z,100168.66
2022-10-21T11:25:43.986Z,100168.41
2022-10-21T11:28:29.460Z,100162.31
2022-10-21T11:31:21.577Z,100158.34
2022-10-21T11:34:11.432Z,100162.69
2022-10-21T11:37:27.702Z,100153.34
2022-10-21T11:40:22.828Z,100148.09
2022-10-21T11:42:52.491Z,100161.72
2022-10-21T11:45:45.388Z,100149.97
2022-10-21T11:48:32.355Z,100137.19
2022-10-21T11:51:19.673Z,100142.19
2022-10-21T11:54:04.872Z,100144.63
2022-10-21T11:56:45.740Z,100122.28
2022-10-21T11:59:50.177Z,100117.50
2022-10-21T12:02:27.167Z,100115.72
2022-10-21T12:05:07.663Z,100118.22
2022-10-21T12:08:12.571Z,100115.53
2022-10-21T12:10:53.121Z,100113.19
2022-10-21T12:13:28.389Z,100124.41
2022-10-21T12:16:00.325Z,100120.88
2022-10-21T12:18:29.754Z,100119.63
2022-10-21T12:20:58.867Z,100137.44
2022-10-21T12:23:29.594Z,100133.28
2022-10-21T12:25:58.526Z,100124.69
2022-10-21T12:28:53.756Z,100123.84
2022-10-21T12:31:32.818Z,100112.59
2022-10-21T12:34:01.708Z,100101.94
2022-10-21T12:36:49.501Z,100115.75
2022-10-21T12:39:38.471Z,100120.63
2022-10-21T12:42:13.687Z,100112.59
2022-10-21T12:44:47.452Z,100107.03
2022-10-21T12:47:26.069Z,100124.28
2022-10-21T12:50:15.310Z,100114.53
2022-10-21T12:52:45.259Z,100120.38
2022-10-21T12:55:23.534Z,100112.03
2022-10-21T12:58:00.937Z,100118.81
2022-10-21T13:00:28.648Z,100117.91
2022-10-21T13:03:00.631Z,100108.66
2022-10-21T13:05:36.895Z,100094.19
2022-10-21T13:08:50.594Z,100086.59
2022-10-21T13:11:24.870Z,100086.69
2022-10-21T13:14:33.645Z,100079.91
2022-10-21T13:17:21.697Z,100083.41
2022-10-21T13:19:51.690Z,100077.75
2022-10-21T13:22:40.483Z,100065.63
2022-10-21T13:25:28.695Z,100076.41
2022-10-21T13:28:06.124Z,100076.28
2022-10-21T13:30:38.634Z,100073.50
2022-10-21T13:33:29.931Z,100078.00
2022-10-21T13:36:08.063Z,100069.25
2022-10-21T13:38:45.424Z,100078.22
2022-10-21T13:41:20.792Z,100076.41
2022-10-21T13:43:59.199Z,100084.06
2022-10-21T13:46:42.522Z,100078.31
2022-10-21T13:49:32.791Z,100071.31
2022-10-21T13:52:00.217Z,100074.31
2022-10-21T13:54:34.921Z,100074.31
2022-10-21T13:57:07.367Z,100077.72
2022-10-21T13:59:35.020Z,100065.81
2022-10-21T14:02:03.695Z,100069.47
2022-10-21T14:04:33.956Z,100072.50
2022-10-21T14:07:05.882Z,100064.16
2022-10-21T14:09:44.386Z,100076.28
2022-10-21T14:12:26.138Z,100066.34
2022-10-21T14:14:55.938Z,100069.22
2022-10-21T14:17:27.337Z,100055.13
2022-10-21T14:20:02.649Z,100046.88
2022-10-21T14:22:31.610Z,100060.00
2022-10-21T14:25:02.400Z,100060.94
2022-10-21T14:27:32.737Z,100050.28
2022-10-21T14:30:03.719Z,100055.38
2022-10-21T14:32:31.613Z,100055.34
2022-10-21T14:35:21.380Z,100054.28
2022-10-21T14:37:51.664Z,100058.25
2022-10-21T14:40:32.619Z,100043.38
2022-10-21T14:43:10.214Z,100048.09
2022-10-21T14:45:45.709Z,100045.19
2022-10-21T14:48:30.295Z,100047.50
2022-10-21T14:51:00.927Z,100044.69
2022-10-21T14:53:34.016Z,100051.00
2022-10-21T14:56:04.841Z,100046.84
2022-10-21T14:58:38.060Z,100038.97
2022-10-21T15:01:18.603Z,100038.97
2022-10-21T15:03:47.211Z,100049.31
2022-10-21T15:06:37.669Z,100040.50
2022-10-21T15:09:11.284Z,100032.25
2022-10-21T15:11:41.845Z,100026.44
2022-10-21T15:14:15.216Z,100037.53
2022-10-21T15:16:54.215Z,100047.28
2022-10-21T15:19:26.436Z,100044.91
2022-10-21T15:21:59.846Z,100033.88
2022-10-21T15:24:40.386Z,100048.16
2022-10-21T15:27:14.576Z,100058.13
2022-10-21T15:29:48.004Z,100035.56
2022-10-21T15:32:19.187Z,100053.63
2022-10-21T15:34:50.459Z,100054.50
2022-10-21T15:37:17.697Z,100056.06
2022-10-21T15:39:45.633Z,100058.72
2022-10-21T15:42:16.482Z,100066.03
2022-10-21T15:44:49.169Z,100067.47
2022-10-21T15:47:16.848Z,100058.25
2022-10-21T15:49:46.068Z,100065.19
2022-10-21T15:52:16.951Z,100068.06
2022-10-21T15:54:44.564Z,100061.91
2022-10-21T15:57:20.752Z,100060.19
2022-10-21T15:59:48.738Z,100061.41
2022-10-21T16:02:17.936Z,100048.81
2022-10-21T16:04:45.906Z,100051.94
2022-10-21T16:07:19.417Z,100045.38
2022-10-21T16:09:47.374Z,100038.19
2022-10-21T16:12:16.463Z,100037.34
2022-10-21T16:14:43.894Z,100027.50
2022-10-21T16:17:12.317Z,100035.41
2022-10-21T16:19:39.974Z,100041.47
2022-10-21T16:22:14.320Z,100038.69
2022-10-21T16:24:41.761Z,100046.22
2022-10-21T16:27:12.848Z,100046.22
2022-10-21T16:29:40.771Z,100027.63
2022-10-21T16:32:12.182Z,100038.69
2022-10-21T16:34:39.975Z,100018.78
2022-10-21T16:37:40.066Z,100040.50
2022-10-21T16:40:18.163Z,100050.94
2022-10-21T16:42:45.345Z,100053.50
2022-10-21T16:45:14.166Z,100052.97
2022-10-21T16:47:48.292Z,100045.56
2022-10-21T16:50:22.632Z,100041.94
2022-10-21T16:52:50.376Z,100044.13
2022-10-21T16:55:18.549Z,100052.88
2022-10-21T16:57:45.743Z,100034.53
2022-10-21T17:00:14.478Z,100040.94
2022-10-21T17:02:45.791Z,100039.97
2022-10-21T17:05:13.559Z,100035.50
2022-10-21T17:07:41.349Z,100027.22
2022-10-21T17:10:09.862Z,100023.50
2022-10-21T17:12:37.132Z,100019.56
2022-10-21T17:15:05.033Z,100025.84
2022-10-21T17:17:32.426Z,100020.78
2022-10-21T17:19:59.818Z,100008.84
2022-10-21T17:22:27.005Z,100023.28
2022-10-21T17:24:54.352Z,100016.88
2022-10-21T17:27:21.716Z,100017.13
2022-10-21T17:29:49.162Z,100023.16
2022-10-21T17:32:17.434Z,100010.03
2022-10-21T17:34:44.829Z,100017.94
2022-10-21T17:37:12.470Z,100036.00
2022-10-21T17:39:40.992Z,100020.50
2022-10-21T17:42:09.760Z,100023.16
2022-10-21T17:44:37.146Z,100023.63
2022-10-21T17:47:04.350Z,100013.28
2022-10-21T17:49:31.765Z,100021.72
2022-10-21T17:51:59.013Z,100015.13
2022-10-21T17:54:29.171Z,100012.34
2022-10-21T17:56:56.883Z,100007.06
2022-10-21T17:59:24.589Z,99991.09
2022-10-21T18:01:51.817Z,99998.66
2022-10-21T18:04:19.739Z,99981.94
2022-10-21T18:06:47.093Z,99978.44
2022-10-21T18:09:14.618Z,99991.09
2022-10-21T18:11:41.916Z,99985.72
2022-10-21T18:14:09.370Z,99978.91
2022-10-21T18:16:36.644Z,99978.97
2022-10-21T18:19:04.646Z,99977.19
2022-10-21T18:21:31.962Z,99980.75
2022-10-21T18:23:59.370Z,99970.59
2022-10-21T18:26:29.452Z,99973.66
2022-10-21T18:29:02.194Z,99966.34
2022-10-21T18:31:33.567Z,99966.09
2022-10-21T18:34:03.246Z,99952.53
2022-10-21T18:36:31.295Z,99964.03
2022-10-21T18:38:59.446Z,99961.19
2022-10-21T18:41:27.704Z,99957.66
2022-10-21T18:44:01.741Z,99949.47
2022-10-21T18:46:29.831Z,99951.63
2022-10-21T18:48:57.963Z,99945.94
2022-10-21T18:51:25.518Z,99941.75
2022-10-21T18:53:53.354Z,99946.09
2022-10-21T18:56:22.428Z,99946.66
2022-10-21T18:58:50.733Z,99942.44
2022-10-21T19:01:19.722Z,99953.19
2022-10-21T19:03:47.739Z,99952.53
2022-10-21T19:06:38.242Z,99960.09
2022-10-21T19:09:13.077Z,99949.91
2022-10-21T19:11:41.425Z,99960.72
2022-10-21T19:14:11.343Z,99946.28
2022-10-21T19:16:42.547Z,99957.59
2022-10-21T19:19:10.480Z,99953.28
2022-10-21T19:21:38.006Z,99947.81
2022-10-21T19:24:06.298Z,99944.16
2022-10-21T19:26:35.800Z,99947.66
2022-10-21T19:29:07.761Z,99940.75
2022-10-21T19:31:36.439Z,99950.09
2022-10-21T19:34:07.539Z,99945.34
2022-10-21T19:36:34.804Z,99946.69
2022-10-21T19:39:02.350Z,99950.91
2022-10-21T19:41:29.534Z,99932.06
2022-10-21T19:44:00.686Z,99941.16
2022-10-21T19:46:30.866Z,99949.44
2022-10-21T19:49:01.752Z,99939.06
2022-10-21T19:51:29.079Z,99940.97
2022-10-21T19:53:57.116Z,99931.50
2022-10-21T19:56:28.615Z,99924.47
2022-10-21T19:58:58.224Z,99918.72
2022-10-21T20:01:26.477Z,99930.88
2022-10-21T20:03:54.812Z,99919.81
2022-10-21T20:06:30.898Z,99923.00
2022-10-21T20:09:04.577Z,99920.88
2022-10-21T20:11:32.232Z,99922.03
2022-10-21T20:13:59.808Z,99927.13
2022-10-21T20:16:39.408Z,99932.34
2022-10-21T20:19:07.001Z,99934.69
2022-10-21T20:21:36.577Z,99945.25
2022-10-21T20:24:04.599Z,99941.91
2022-10-21T20:26:31.952Z,99937.69
2022-10-21T20:29:01.976Z,99945.25
2022-10-21T20:31:29.397Z,99936.22
2022-10-21T20:33:57.219Z,99940.50
2022-10-21T20:36:27.067Z,99946.75
2022-10-21T20:38:57.264Z,99947.56
2022-10-21T20:41:34.422Z,99938.44
2022-10-21T20:44:02.304Z,99958.97
2022-10-21T20:46:32.552Z,99937.00
2022-10-21T20:48:59.945Z,99938.66
2022-10-21T20:51:31.992Z,99927.16
2022-10-21T20:54:02.291Z,99930.25
2022-10-21T20:56:32.822Z,99933.88
2022-10-21T20:59:00.794Z,99927.75
2022-10-21T21:01:33.889Z,99935.53
2022-10-21T21:04:04.985Z,99913.56
2022-10-21T21:06:37.456Z,99917.81
2022-10-21T21:11:52.236Z,99920.31
2022-10-21T21:14:19.702Z,99924.00
2022-10-21T21:16:46.901Z,99926.53
2022-10-21T21:19:14.684Z,99914.03
2022-10-21T21:21:42.268Z,99910.53
2022-10-21T21:24:09.711Z,99908.31
2022-10-21T21:26:39.379Z,99906.13
2022-10-21T21:29:08.983Z,99898.22
2022-10-21T21:31:38.706Z,99903.56
2022-10-21T21:34:06.923Z,99890.94
2022-10-21T21:36:34.250Z,99903.78
2022-10-21T21:39:01.841Z,99898.66
2022-10-21T21:41:29.477Z,99894.78
2022-10-21T21:43:57.013Z,99904.38
2022-10-21T21:46:25.214Z,99893.81
2022-10-21T21:49:02.264Z,99900.19
2022-10-21T21:51:31.993Z,99902.28
2022-10-21T21:53:59.543Z,99886.94
2022-10-21T21:56:28.056Z,99890.16
2022-10-21T21:58:57.858Z,99893.59
2022-10-21T22:01:27.661Z,99895.22
2022-10-21T22:03:56.394Z,99886.16
2022-10-21T22:09:00.726Z,99877.97
2022-10-21T22:11:31.233Z,99882.03
2022-10-21T22:13:59.459Z,99883.94
2022-10-21T22:16:30.375Z,99873.38
2022-10-21T22:18:59.976Z,99878.16
2022-10-21T22:21:28.235Z,99871.47
2022-10-21T22:23:55.739Z,99871.34
2022-10-21T22:26:23.422Z,99868.91
2022-10-21T22:28:50.801Z,99866.03
2022-10-21T22:31:18.796Z,99860.09
2022-10-21T22:33:46.688Z,99858.97
2022-10-21T22:36:16.475Z,99861.94
2022-10-21T22:38:44.821Z,99857.06
2022-10-21T22:41:12.818Z,99856.50
2022-10-21T22:43:40.675Z,99851.91
2022-10-21T22:46:29.294Z,99846.72
2022-10-21T22:48:55.420Z,99849.41
2022-10-21T22:51:22.676Z,99845.19
2022-10-21T22:53:55.108Z,99850.44
2022-10-21T22:56:27.929Z,99834.53
2022-10-21T22:58:55.482Z,99839.63
2022-10-21T23:01:24.150Z,99843.31
2022-10-21T23:03:51.772Z,99844.16
2022-10-21T23:06:18.952Z,99835.91
2022-10-21T23:08:46.379Z,99831.75
2022-10-21T23:11:13.597Z,99824.53
2022-10-21T23:13:51.180Z,99822.75
2022-10-21T23:16:28.203Z,99824.72
2022-10-21T23:18:55.631Z,99820.91
2022-10-21T23:21:22.797Z,99826.03
2022-10-21T23:23:51.313Z,99822.44
2022-10-21T23:26:18.611Z,99823.84
2022-10-21T23:28:45.978Z,99826.72
2022-10-21T23:31:13.422Z,99820.38
2022-10-21T23:33:40.820Z,99819.63
2022-10-21T23:36:08.197Z,99822.13
2022-10-21T23:38:35.552Z,99823.69
2022-10-21T23:41:02.736Z,99817.31
2022-10-21T23:43:30.121Z,99817.91
2022-10-21T23:45:57.317Z,99825.25
2022-10-21T23:48:24.649Z,99820.00
2022-10-21T23:50:51.812Z,99820.38
2022-10-21T23:53:19.178Z,99817.44
2022-10-21T23:55:46.341Z,99823.28
2022-10-21T23:58:14.255Z,99822.06
